sensor_id;sensor_type;location;lat;lon;timestamp;pressure;altitude;pressure_sealevel;temperature;humidity
77013;BME280;67260;53.130;17.982;2024-01-15T00:01:45;98733.92;;;0.44;91.24
77013;BME280;67260;53.130;17.982;2024-01-15T00:04:26;98734.84;;;0.42;90.80
77013;BME280;67260;53.130;17.982;2024-01-15T00:06:52;98726.69;;;0.39;91.21
77013;BME280;67260;53.130;17.982;2024-01-15T00:09:18;98724.22;;;0.36;91.26
77013;BME280;67260;53.130;17.982;2024-01-15T00:11:48;98721.89;;;0.35;91.49
77013;BME280;67260;53.130;17.982;2024-01-15T00:14:39;98712.24;;;0.35;91.47
77013;BME280;67260;53.130;17.982;2024-01-15T00:17:27;98713.77;;;0.33;91.42
77013;BME280;67260;53.130;17.982;2024-01-15T00:19:53;98710.23;;;0.33;91.77
77013;BME280;67260;53.130;17.982;2024-01-15T00:22:25;98707.09;;;0.34;91.82
77013;BME280;67260;53.130;17.982;2024-01-15T00:25:04;98698.78;;;0.35;91.77
77013;BME280;67260;53.130;17.982;2024-01-15T00:27:30;98694.98;;;0.36;91.69
77013;BME280;67260;53.130;17.982;2024-01-15T00:29:56;98687.95;;;0.37;91.44
77013;BME280;67260;53.130;17.982;2024-01-15T00:33:07;98673.92;;;0.36;91.51
77013;BME280;67260;53.130;17.982;2024-01-15T00:35:33;98669.02;;;0.36;91.70
77013;BME280;67260;53.130;17.982;2024-01-15T00:38:00;98669.59;;;0.37;91.54
77013;BME280;67260;53.130;17.982;2024-01-15T00:40:26;98663.33;;;0.37;91.62
77013;BME280;67260;53.130;17.982;2024-01-15T00:42:54;98660.06;;;0.37;91.42
77013;BME280;67260;53.130;17.982;2024-01-15T00:45:21;98657.69;;;0.36;91.29
77013;BME280;67260;53.130;17.982;2024-01-15T00:48:31;98653.18;;;0.36;91.51
77013;BME280;67260;53.130;17.982;2024-01-15T00:50:58;98648.12;;;0.35;91.62
77013;BME280;67260;53.130;17.982;2024-01-15T00:53:25;98644.58;;;0.34;91.60
77013;BME280;67260;53.130;17.982;2024-01-15T00:55:51;98633.68;;;0.32;91.67
77013;BME280;67260;53.130;17.982;2024-01-15T00:58:18;98632.06;;;0.31;91.67
77013;BME280;67260;53.130;17.982;2024-01-15T01:00:44;98629.20;;;0.30;91.81
77013;BME280;67260;53.130;17.982;2024-01-15T01:03:12;98619.84;;;0.28;91.88
77013;BME280;67260;53.130;17.982;2024-01-15T01:05:39;98624.38;;;0.28;91.87
77013;BME280;67260;53.130;17.982;2024-01-15T01:12:23;98603.52;;;0.25;91.68
77013;BME280;67260;53.130;17.982;2024-01-15T01:14:50;98598.21;;;0.26;91.93
77013;BME280;67260;53.130;17.982;2024-01-15T01:21:16;98584.80;;;0.26;92.10
77013;BME280;67260;53.130;17.982;2024-01-15T01:31:45;98575.69;;;0.27;91.92
77013;BME280;67260;53.130;17.982;2024-01-15T01:34:25;98574.41;;;0.27;92.10
77013;BME280;67260;53.130;17.982;2024-01-15T01:37:17;98574.52;;;0.28;92.15
77013;BME280;67260;53.130;17.982;2024-01-15T01:43:44;98565.48;;;0.27;92.10
77013;BME280;67260;53.130;17.982;2024-01-15T01:46:12;98565.09;;;0.28;92.01
77013;BME280;67260;53.130;17.982;2024-01-15T01:52:23;98547.73;;;0.30;92.10
77013;BME280;67260;53.130;17.982;2024-01-15T01:55:00;98543.97;;;0.31;92.04
77013;BME280;67260;53.130;17.982;2024-01-15T01:58:06;98541.76;;;0.30;91.95
77013;BME280;67260;53.130;17.982;2024-01-15T02:01:27;98534.08;;;0.29;92.07
77013;BME280;67260;53.130;17.982;2024-01-15T02:03:59;98534.80;;;0.28;92.21
77013;BME280;67260;53.130;17.982;2024-01-15T02:06:26;98525.02;;;0.26;92.14
77013;BME280;67260;53.130;17.982;2024-01-15T02:08:53;98518.59;;;0.25;92.05
77013;BME280;67260;53.130;17.982;2024-01-15T02:11:36;98513.25;;;0.23;92.22
77013;BME280;67260;53.130;17.982;2024-01-15T02:14:06;98511.32;;;0.24;92.44
77013;BME280;67260;53.130;17.982;2024-01-15T02:16:35;98510.55;;;0.23;92.32
77013;BME280;67260;53.130;17.982;2024-01-15T02:19:26;98504.20;;;0.22;92.30
77013;BME280;67260;53.130;17.982;2024-01-15T02:22:27;98496.24;;;0.23;92.24
77013;BME280;67260;53.130;17.982;2024-01-15T02:24:53;98499.27;;;0.24;92.09
77013;BME280;67260;53.130;17.982;2024-01-15T02:27:19;98493.81;;;0.26;92.13
77013;BME280;67260;53.130;17.982;2024-01-15T02:30:25;98490.65;;;0.26;92.08
77013;BME280;67260;53.130;17.982;2024-01-15T02:32:54;98489.80;;;0.27;91.65
77013;BME280;67260;53.130;17.982;2024-01-15T02:35:20;98480.33;;;0.28;91.76
77013;BME280;67260;53.130;17.982;2024-01-15T02:38:00;98477.75;;;0.27;91.64
77013;BME280;67260;53.130;17.982;2024-01-15T02:40:26;98477.75;;;0.26;91.64
77013;BME280;67260;53.130;17.982;2024-01-15T02:42:53;98471.61;;;0.26;91.82
77013;BME280;67260;53.130;17.982;2024-01-15T02:45:19;98466.63;;;0.27;91.53
77013;BME280;67260;53.130;17.982;2024-01-15T02:47:51;98466.10;;;0.27;91.71
77013;BME280;67260;53.130;17.982;2024-01-15T02:50:19;98461.64;;;0.28;91.49
77013;BME280;67260;53.130;17.982;2024-01-15T02:52:45;98460.23;;;0.28;91.12
77013;BME280;67260;53.130;17.982;2024-01-15T02:55:16;98449.92;;;0.28;91.49
77013;BME280;67260;53.130;17.982;2024-01-15T02:57:42;98444.82;;;0.29;91.50
77013;BME280;67260;53.130;17.982;2024-01-15T03:00:09;98442.05;;;0.29;91.30
77013;BME280;67260;53.130;17.982;2024-01-15T03:02:37;98439.39;;;0.28;91.36
77013;BME280;67260;53.130;17.982;2024-01-15T03:05:10;98437.14;;;0.27;91.39
77013;BME280;67260;53.130;17.982;2024-01-15T03:07:36;98437.18;;;0.26;91.24
77013;BME280;67260;53.130;17.982;2024-01-15T03:10:02;98433.48;;;0.25;91.55
77013;BME280;67260;53.130;17.982;2024-01-15T03:12:30;98432.03;;;0.24;91.36
77013;BME280;67260;53.130;17.982;2024-01-15T03:15:00;98428.20;;;0.23;91.60
77013;BME280;67260;53.130;17.982;2024-01-15T03:17:32;98426.64;;;0.21;91.49
77013;BME280;67260;53.130;17.982;2024-01-15T03:20:30;98419.88;;;0.18;91.50
77013;BME280;67260;53.130;17.982;2024-01-15T03:23:00;98408.70;;;0.15;91.57
77013;BME280;67260;53.130;17.982;2024-01-15T03:25:36;98403.88;;;0.11;91.80
77013;BME280;67260;53.130;17.982;2024-01-15T03:28:07;98399.41;;;0.08;91.75
77013;BME280;67260;53.130;17.982;2024-01-15T03:30:33;98397.59;;;0.05;92.01
77013;BME280;67260;53.130;17.982;2024-01-15T03:32:59;98393.21;;;0.01;92.31
77013;BME280;67260;53.130;17.982;2024-01-15T03:35:25;98392.55;;;-0.01;92.15
77013;BME280;67260;53.130;17.982;2024-01-15T03:37:55;98386.55;;;-0.04;92.31
77013;BME280;67260;53.130;17.982;2024-01-15T03:40:21;98382.73;;;-0.05;92.57
77013;BME280;67260;53.130;17.982;2024-01-15T03:42:51;98380.56;;;-0.06;92.68
77013;BME280;67260;53.130;17.982;2024-01-15T03:45:17;98381.73;;;-0.05;92.70
77013;BME280;67260;53.130;17.982;2024-01-15T03:47:44;98374.73;;;-0.07;92.68
77013;BME280;67260;53.130;17.982;2024-01-15T03:50:11;98376.70;;;-0.08;92.85
77013;BME280;67260;53.130;17.982;2024-01-15T03:52:38;98372.92;;;-0.11;92.76
77013;BME280;67260;53.130;17.982;2024-01-15T03:55:05;98368.17;;;-0.15;93.00
77013;BME280;67260;53.130;17.982;2024-01-15T03:57:34;98363.31;;;-0.19;93.05
77013;BME280;67260;53.130;17.982;2024-01-15T04:00:06;98360.84;;;-0.20;93.04
77013;BME280;67260;53.130;17.982;2024-01-15T04:02:36;98359.20;;;-0.22;93.27
77013;BME280;67260;53.130;17.982;2024-01-15T04:05:02;98356.86;;;-0.24;93.40
77013;BME280;67260;53.130;17.982;2024-01-15T04:07:29;98352.52;;;-0.26;93.56
77013;BME280;67260;53.130;17.982;2024-01-15T04:10:02;98361.30;;;-0.26;93.81
77013;BME280;67260;53.130;17.982;2024-01-15T04:12:32;98357.20;;;-0.27;94.05
77013;BME280;67260;53.130;17.982;2024-01-15T04:15:06;98351.83;;;-0.28;93.99
77013;BME280;67260;53.130;17.982;2024-01-15T04:17:35;98349.26;;;-0.30;94.38
77013;BME280;67260;53.130;17.982;2024-01-15T04:20:11;98353.78;;;-0.31;94.51
77013;BME280;67260;53.130;17.982;2024-01-15T04:22:40;98354.02;;;-0.32;94.32
77013;BME280;67260;53.130;17.982;2024-01-15T04:25:46;98346.13;;;-0.31;94.41
77013;BME280;67260;53.130;17.982;2024-01-15T04:28:38;98347.05;;;-0.31;94.05
77013;BME280;67260;53.130;17.982;2024-01-15T04:31:04;98336.96;;;-0.32;94.09
77013;BME280;67260;53.130;17.982;2024-01-15T04:33:30;98337.36;;;-0.32;93.48
77013;BME280;67260;53.130;17.982;2024-01-15T04:35:56;98324.84;;;-0.32;93.28
77013;BME280;67260;53.130;17.982;2024-01-15T04:38:24;98328.98;;;-0.33;92.83
77013;BME280;67260;53.130;17.982;2024-01-15T04:40:52;98325.23;;;-0.34;92.71
77013;BME280;67260;53.130;17.982;2024-01-15T04:43:18;98321.23;;;-0.34;92.83
77013;BME280;67260;53.130;17.982;2024-01-15T04:45:44;98324.31;;;-0.34;92.93
77013;BME280;67260;53.130;17.982;2024-01-15T04:48:10;98320.42;;;-0.34;92.90
77013;BME280;67260;53.130;17.982;2024-01-15T04:50:36;98325.88;;;-0.35;93.02
77013;BME280;67260;53.130;17.982;2024-01-15T04:53:03;98323.88;;;-0.36;93.18
77013;BME280;67260;53.130;17.982;2024-01-15T04:55:29;98322.70;;;-0.36;92.99
77013;BME280;67260;53.130;17.982;2024-01-15T04:57:55;98324.02;;;-0.37;93.27
77013;BME280;67260;53.130;17.982;2024-01-15T05:00:24;98324.30;;;-0.37;93.10
77013;BME280;67260;53.130;17.982;2024-01-15T05:02:50;98329.29;;;-0.36;93.26
77013;BME280;67260;53.130;17.982;2024-01-15T05:05:16;98327.96;;;-0.36;93.02
77013;BME280;67260;53.130;17.982;2024-01-15T05:07:45;98330.58;;;-0.36;92.90
77013;BME280;67260;53.130;17.982;2024-01-15T05:10:11;98325.66;;;-0.39;92.91
77013;BME280;67260;53.130;17.982;2024-01-15T05:12:40;98321.45;;;-0.42;92.78
77013;BME280;67260;53.130;17.982;2024-01-15T05:15:09;98326.05;;;-0.46;92.42
77013;BME280;67260;53.130;17.982;2024-01-15T05:17:35;98329.71;;;-0.49;92.59
77013;BME280;67260;53.130;17.982;2024-01-15T05:20:01;98327.34;;;-0.52;92.17
77013;BME280;67260;53.130;17.982;2024-01-15T05:22:27;98326.55;;;-0.56;92.39
77013;BME280;67260;53.130;17.982;2024-01-15T05:24:54;98331.98;;;-0.61;92.05
77013;BME280;67260;53.130;17.982;2024-01-15T05:27:20;98330.24;;;-0.67;92.05
77013;BME280;67260;53.130;17.982;2024-01-15T05:29:46;98333.95;;;-0.70;92.51
77013;BME280;67260;53.130;17.982;2024-01-15T05:32:18;98331.11;;;-0.68;92.45
77013;BME280;67260;53.130;17.982;2024-01-15T05:34:46;98322.14;;;-0.66;91.99
77013;BME280;67260;53.130;17.982;2024-01-15T05:37:13;98322.67;;;-0.63;92.09
77013;BME280;67260;53.130;17.982;2024-01-15T05:39:39;98323.21;;;-0.60;91.91
77013;BME280;67260;53.130;17.982;2024-01-15T05:42:08;98315.92;;;-0.58;91.95
77013;BME280;67260;53.130;17.982;2024-01-15T05:44:34;98309.59;;;-0.56;91.81
77013;BME280;67260;53.130;17.982;2024-01-15T05:47:03;98312.01;;;-0.54;91.82
77013;BME280;67260;53.130;17.982;2024-01-15T05:49:30;98314.05;;;-0.53;91.47
77013;BME280;67260;53.130;17.982;2024-01-15T05:51:58;98317.03;;;-0.51;91.56
77013;BME280;67260;53.130;17.982;2024-01-15T05:54:24;98313.73;;;-0.51;91.40
77013;BME280;67260;53.130;17.982;2024-01-15T05:56:50;98312.29;;;-0.54;91.05
77013;BME280;67260;53.130;17.982;2024-01-15T05:59:16;98308.66;;;-0.56;91.08
77013;BME280;67260;53.130;17.982;2024-01-15T06:01:43;98302.64;;;-0.57;91.12
77013;BME280;67260;53.130;17.982;2024-01-15T06:04:10;98302.70;;;-0.55;91.17
77013;BME280;67260;53.130;17.982;2024-01-15T06:06:37;98305.75;;;-0.53;91.39
77013;BME280;67260;53.130;17.982;2024-01-15T06:09:03;98296.60;;;-0.52;91.37
77013;BME280;67260;53.130;17.982;2024-01-15T06:11:31;98300.54;;;-0.51;91.43
77013;BME280;67260;53.130;17.982;2024-01-15T06:13:58;98297.85;;;-0.51;91.89
77013;BME280;67260;53.130;17.982;2024-01-15T06:16:26;98292.27;;;-0.52;91.62
77013;BME280;67260;53.130;17.982;2024-01-15T06:18:53;98293.52;;;-0.52;91.70
77013;BME280;67260;53.130;17.982;2024-01-15T06:21:32;98291.75;;;-0.54;91.64
77013;BME280;67260;53.130;17.982;2024-01-15T06:24:02;98295.27;;;-0.54;91.79
77013;BME280;67260;53.130;17.982;2024-01-15T06:26:29;98293.23;;;-0.54;91.57
77013;BME280;67260;53.130;17.982;2024-01-15T06:28:59;98293.84;;;-0.55;91.64
77013;BME280;67260;53.130;17.982;2024-01-15T06:31:27;98285.26;;;-0.53;91.61
77013;BME280;67260;53.130;17.982;2024-01-15T06:33:53;98284.49;;;-0.51;91.72
77013;BME280;67260;53.130;17.982;2024-01-15T06:36:21;98287.04;;;-0.48;91.48
77013;BME280;67260;53.130;17.982;2024-01-15T06:38:50;98286.27;;;-0.49;91.05
77013;BME280;67260;53.130;17.982;2024-01-15T06:41:18;98289.80;;;-0.46;90.84
77013;BME280;67260;53.130;17.982;2024-01-15T06:43:44;98289.13;;;-0.45;90.86
77013;BME280;67260;53.130;17.982;2024-01-15T06:46:19;98289.25;;;-0.44;90.88
77013;BME280;67260;53.130;17.982;2024-01-15T06:48:45;98283.40;;;-0.43;91.16
77013;BME280;67260;53.130;17.982;2024-01-15T06:51:12;98276.46;;;-0.43;90.85
77013;BME280;67260;53.130;17.982;2024-01-15T06:53:40;98277.67;;;-0.40;90.83
77013;BME280;67260;53.130;17.982;2024-01-15T06:56:08;98277.04;;;-0.39;90.58
77013;BME280;67260;53.130;17.982;2024-01-15T07:08:31;98275.44;;;-0.37;90.69
77013;BME280;67260;53.130;17.982;2024-01-15T07:10:58;98273.83;;;-0.36;90.13
77013;BME280;67260;53.130;17.982;2024-01-15T07:13:32;98270.98;;;-0.34;90.54
77013;BME280;67260;53.130;17.982;2024-01-15T07:16:01;98272.13;;;-0.29;90.29
77013;BME280;67260;53.130;17.982;2024-01-15T07:18:30;98271.23;;;-0.28;90.34
77013;BME280;67260;53.130;17.982;2024-01-15T07:20:56;98268.23;;;-0.27;90.55
77013;BME280;67260;53.130;17.982;2024-01-15T07:23:23;98276.70;;;-0.30;90.91
77013;BME280;67260;53.130;17.982;2024-01-15T07:25:49;98282.63;;;-0.31;91.25
77013;BME280;67260;53.130;17.982;2024-01-15T07:28:15;98286.33;;;-0.33;91.59
77013;BME280;67260;53.130;17.982;2024-01-15T07:30:41;98281.58;;;-0.34;91.63
77013;BME280;67260;53.130;17.982;2024-01-15T07:33:07;98290.89;;;-0.32;91.85
77013;BME280;67260;53.130;17.982;2024-01-15T07:35:33;98283.03;;;-0.29;91.98
77013;BME280;67260;53.130;17.982;2024-01-15T07:37:59;98276.35;;;-0.27;91.88
77013;BME280;67260;53.130;17.982;2024-01-15T07:40:25;98280.56;;;-0.24;91.98
77013;BME280;67260;53.130;17.982;2024-01-15T07:42:51;98281.41;;;-0.21;91.76
77013;BME280;67260;53.130;17.982;2024-01-15T07:45:18;98277.73;;;-0.20;91.61
77013;BME280;67260;53.130;17.982;2024-01-15T07:47:44;98274.88;;;-0.17;91.57
77013;BME280;67260;53.130;17.982;2024-01-15T07:50:10;98274.52;;;-0.13;91.76
77013;BME280;67260;53.130;17.982;2024-01-15T07:52:36;98275.61;;;-0.12;91.26
77013;BME280;67260;53.130;17.982;2024-01-15T07:55:02;98279.95;;;-0.09;91.17
77013;BME280;67260;53.130;17.982;2024-01-15T07:57:31;98273.70;;;-0.05;90.79
77013;BME280;67260;53.130;17.982;2024-01-15T08:03:03;98266.65;;;0.08;90.07
77013;BME280;67260;53.130;17.982;2024-01-15T08:05:29;98274.38;;;0.16;90.04
77013;BME280;67260;53.130;17.982;2024-01-15T08:07:56;98267.98;;;0.26;90.27
77013;BME280;67260;53.130;17.982;2024-01-15T08:10:22;98267.52;;;0.60;89.61
77013;BME280;67260;53.130;17.982;2024-01-15T08:12:48;98265.67;;;1.02;88.63
77013;BME280;67260;53.130;17.982;2024-01-15T08:15:14;98270.09;;;0.92;87.80
77013;BME280;67260;53.130;17.982;2024-01-15T08:17:40;98261.75;;;0.81;87.66
77013;BME280;67260;53.130;17.982;2024-01-15T08:20:06;98263.39;;;0.68;87.31
77013;BME280;67260;53.130;17.982;2024-01-15T08:22:33;98263.80;;;0.53;87.61
77013;BME280;67260;53.130;17.982;2024-01-15T08:24:59;98259.08;;;0.41;87.81
77013;BME280;67260;53.130;17.982;2024-01-15T08:27:25;98263.37;;;0.32;88.14
77013;BME280;67260;53.130;17.982;2024-01-15T08:29:51;98263.09;;;0.29;87.93
77013;BME280;67260;53.130;17.982;2024-01-15T08:32:17;98264.05;;;0.34;88.21
77013;BME280;67260;53.130;17.982;2024-01-15T08:34:44;98260.36;;;0.41;87.65
77013;BME280;67260;53.130;17.982;2024-01-15T08:37:10;98262.74;;;0.79;87.96
77013;BME280;67260;53.130;17.982;2024-01-15T08:39:36;98259.67;;;2.01;86.01
77013;BME280;67260;53.130;17.982;2024-01-15T08:42:05;98257.38;;;2.53;82.34
77013;BME280;67260;53.130;17.982;2024-01-15T08:44:31;98258.44;;;2.47;82.40
77013;BME280;67260;53.130;17.982;2024-01-15T08:46:57;98250.35;;;2.46;82.02
77013;BME280;67260;53.130;17.982;2024-01-15T08:49:26;98251.98;;;2.98;82.54
77013;BME280;67260;53.130;17.982;2024-01-15T08:51:56;98253.14;;;3.35;80.94
77013;BME280;67260;53.130;17.982;2024-01-15T08:54:23;98254.44;;;3.21;80.88
77013;BME280;67260;53.130;17.982;2024-01-15T08:57:17;98258.63;;;2.88;78.99
77013;BME280;67260;53.130;17.982;2024-01-15T08:59:48;98259.72;;;2.28;81.57
77013;BME280;67260;53.130;17.982;2024-01-15T09:02:14;98256.85;;;1.93;82.40
77013;BME280;67260;53.130;17.982;2024-01-15T09:04:46;98251.15;;;1.73;81.61
77013;BME280;67260;53.130;17.982;2024-01-15T09:07:52;98249.12;;;1.61;82.77
77013;BME280;67260;53.130;17.982;2024-01-15T09:10:26;98237.84;;;1.98;83.37
77013;BME280;67260;53.130;17.982;2024-01-15T09:13:02;98237.13;;;2.59;82.01
77013;BME280;67260;53.130;17.982;2024-01-15T09:16:15;98237.27;;;3.13;80.75
77013;BME280;67260;53.130;17.982;2024-01-15T09:18:44;98239.77;;;2.69;80.33
77013;BME280;67260;53.130;17.982;2024-01-15T09:21:12;98235.90;;;2.28;81.23
77013;BME280;67260;53.130;17.982;2024-01-15T09:23:38;98231.77;;;1.88;81.27
77013;BME280;67260;53.130;17.982;2024-01-15T09:26:08;98233.17;;;1.63;83.19
77013;BME280;67260;53.130;17.982;2024-01-15T09:28:37;98230.94;;;1.44;82.84
77013;BME280;67260;53.130;17.982;2024-01-15T09:31:28;98229.60;;;1.37;83.72
77013;BME280;67260;53.130;17.982;2024-01-15T09:33:54;98229.53;;;1.50;83.34
77013;BME280;67260;53.130;17.982;2024-01-15T09:40:20;98217.33;;;1.52;82.49
77013;BME280;67260;53.130;17.982;2024-01-15T09:42:59;98226.70;;;1.55;83.06
77013;BME280;67260;53.130;17.982;2024-01-15T09:45:26;98221.89;;;1.50;82.88
77013;BME280;67260;53.130;17.982;2024-01-15T09:47:52;98215.98;;;1.41;82.82
77013;BME280;67260;53.130;17.982;2024-01-15T09:50:45;98229.06;;;1.32;83.54
77013;BME280;67260;53.130;17.982;2024-01-15T09:53:33;98235.12;;;1.08;83.96
77013;BME280;67260;53.130;17.982;2024-01-15T09:56:46;98236.13;;;0.84;86.05
77013;BME280;67260;53.130;17.982;2024-01-15T09:59:22;98239.29;;;0.77;86.84
77013;BME280;67260;53.130;17.982;2024-01-15T10:01:52;98237.35;;;0.84;87.37
77013;BME280;67260;53.130;17.982;2024-01-15T10:04:29;98228.67;;;0.95;87.22
77013;BME280;67260;53.130;17.982;2024-01-15T10:07:16;98236.98;;;0.84;86.89
77013;BME280;67260;53.130;17.982;2024-01-15T10:09:45;98243.50;;;0.83;86.93
77013;BME280;67260;53.130;17.982;2024-01-15T10:12:12;98245.58;;;0.87;86.94
77013;BME280;67260;53.130;17.982;2024-01-15T10:14:38;98245.77;;;0.88;86.56
77013;BME280;67260;53.130;17.982;2024-01-15T10:17:31;98242.35;;;1.10;86.54
77013;BME280;67260;53.130;17.982;2024-01-15T10:20:02;98245.67;;;1.52;85.70
77013;BME280;67260;53.130;17.982;2024-01-15T10:22:33;98241.13;;;1.80;84.79
77013;BME280;67260;53.130;17.982;2024-01-15T10:25:04;98242.42;;;1.84;84.33
77013;BME280;67260;53.130;17.982;2024-01-15T10:27:31;98237.02;;;1.93;83.30
77013;BME280;67260;53.130;17.982;2024-01-15T10:30:00;98235.49;;;2.15;83.71
77013;BME280;67260;53.130;17.982;2024-01-15T10:32:28;98228.36;;;2.25;82.85
77013;BME280;67260;53.130;17.982;2024-01-15T10:34:55;98232.13;;;2.26;82.40
77013;BME280;67260;53.130;17.982;2024-01-15T10:37:21;98225.11;;;2.17;81.51
77013;BME280;67260;53.130;17.982;2024-01-15T10:39:49;98219.89;;;1.98;79.90
77013;BME280;67260;53.130;17.982;2024-01-15T10:42:16;98224.33;;;1.86;80.75
77013;BME280;67260;53.130;17.982;2024-01-15T10:44:51;98222.99;;;1.81;81.74
77013;BME280;67260;53.130;17.982;2024-01-15T11:00:26;98218.02;;;1.84;81.29
77013;BME280;67260;53.130;17.982;2024-01-15T11:03:04;98216.17;;;1.70;81.78
77013;BME280;67260;53.130;17.982;2024-01-15T11:05:41;98222.25;;;1.51;82.25
77013;BME280;67260;53.130;17.982;2024-01-15T11:08:12;98230.81;;;1.25;84.04
77013;BME280;67260;53.130;17.982;2024-01-15T11:10:45;98233.20;;;1.06;84.91
77013;BME280;67260;53.130;17.982;2024-01-15T11:16:05;98228.79;;;0.80;86.41
77013;BME280;67260;53.130;17.982;2024-01-15T11:19:02;98222.50;;;0.73;87.05
77013;BME280;67260;53.130;17.982;2024-01-15T11:24:39;98234.20;;;0.66;87.67
77013;BME280;67260;53.130;17.982;2024-01-15T11:27:08;98233.33;;;0.62;88.01
77013;BME280;67260;53.130;17.982;2024-01-15T11:29:35;98239.48;;;0.56;87.78
77013;BME280;67260;53.130;17.982;2024-01-15T11:32:04;98240.02;;;0.48;88.05
77013;BME280;67260;53.130;17.982;2024-01-15T11:48:43;98220.27;;;1.46;85.63
77013;BME280;67260;53.130;17.982;2024-01-15T11:55:39;98220.98;;;1.63;84.28
77013;BME280;67260;53.130;17.982;2024-01-15T11:58:08;98227.80;;;1.73;84.30
77013;BME280;67260;53.130;17.982;2024-01-15T12:00:50;98221.14;;;1.76;83.08
77013;BME280;67260;53.130;17.982;2024-01-15T12:03:24;98233.09;;;1.76;83.67
77013;BME280;67260;53.130;17.982;2024-01-15T12:05:53;98239.34;;;1.75;84.17
77013;BME280;67260;53.130;17.982;2024-01-15T12:08:23;98229.23;;;1.75;82.48
77013;BME280;67260;53.130;17.982;2024-01-15T12:10:50;98228.11;;;1.87;81.12
77013;BME280;67260;53.130;17.982;2024-01-15T12:13:17;98221.46;;;2.03;80.46
77013;BME280;67260;53.130;17.982;2024-01-15T12:15:45;98216.08;;;2.24;80.23
77013;BME280;67260;53.130;17.982;2024-01-15T12:18:13;98217.95;;;2.32;81.66
77013;BME280;67260;53.130;17.982;2024-01-15T12:20:39;98220.80;;;2.41;82.08
77013;BME280;67260;53.130;17.982;2024-01-15T12:23:07;98222.02;;;2.50;82.10
77013;BME280;67260;53.130;17.982;2024-01-15T12:25:33;98228.94;;;2.55;81.78
77013;BME280;67260;53.130;17.982;2024-01-15T12:28:00;98233.40;;;2.52;82.14
77013;BME280;67260;53.130;17.982;2024-01-15T12:30:27;98232.08;;;2.43;81.92
77013;BME280;67260;53.130;17.982;2024-01-15T12:32:54;98231.59;;;2.29;81.79
77013;BME280;67260;53.130;17.982;2024-01-15T12:35:20;98238.47;;;2.20;82.44
77013;BME280;67260;53.130;17.982;2024-01-15T12:37:49;98237.96;;;2.14;82.82
77013;BME280;67260;53.130;17.982;2024-01-15T12:40:19;98234.30;;;2.04;82.47
77013;BME280;67260;53.130;17.982;2024-01-15T12:42:45;98241.65;;;1.90;82.18
77013;BME280;67260;53.130;17.982;2024-01-15T12:45:12;98243.14;;;1.71;81.14
77013;BME280;67260;53.130;17.982;2024-01-15T12:47:40;98244.45;;;1.54;80.55
77013;BME280;67260;53.130;17.982;2024-01-15T12:50:08;98242.62;;;1.40;80.04
77013;BME280;67260;53.130;17.982;2024-01-15T12:52:34;98237.61;;;1.26;79.04
77013;BME280;67260;53.130;17.982;2024-01-15T12:55:00;98238.59;;;1.13;77.93
77013;BME280;67260;53.130;17.982;2024-01-15T12:57:26;98238.54;;;1.01;79.63
77013;BME280;67260;53.130;17.982;2024-01-15T12:59:54;98236.34;;;0.85;77.91
77013;BME280;67260;53.130;17.982;2024-01-15T13:02:20;98243.08;;;0.75;79.30
77013;BME280;67260;53.130;17.982;2024-01-15T13:04:46;98246.05;;;0.73;80.74
77013;BME280;67260;53.130;17.982;2024-01-15T13:07:12;98250.48;;;0.69;80.86
77013;BME280;67260;53.130;17.982;2024-01-15T13:09:38;98254.63;;;0.62;81.28
77013;BME280;67260;53.130;17.982;2024-01-15T13:12:05;98250.46;;;0.57;80.05
77013;BME280;67260;53.130;17.982;2024-01-15T13:14:31;98249.98;;;0.53;80.31
77013;BME280;67260;53.130;17.982;2024-01-15T13:17:00;98254.69;;;0.48;80.14
77013;BME280;67260;53.130;17.982;2024-01-15T13:19:26;98248.95;;;0.44;80.06
77013;BME280;67260;53.130;17.982;2024-01-15T13:21:53;98251.00;;;0.41;80.36
77013;BME280;67260;53.130;17.982;2024-01-15T13:24:21;98242.73;;;0.32;80.99
77013;BME280;67260;53.130;17.982;2024-01-15T13:26:47;98254.62;;;0.23;81.39
77013;BME280;67260;53.130;17.982;2024-01-15T13:29:13;98246.95;;;0.18;81.93
77013;BME280;67260;53.130;17.982;2024-01-15T13:31:40;98254.85;;;0.15;82.69
77013;BME280;67260;53.130;17.982;2024-01-15T13:34:06;98259.75;;;0.12;82.41
77013;BME280;67260;53.130;17.982;2024-01-15T13:36:33;98261.64;;;0.10;82.90
77013;BME280;67260;53.130;17.982;2024-01-15T13:38:59;98265.30;;;0.08;83.04
77013;BME280;67260;53.130;17.982;2024-01-15T13:41:24;98267.94;;;0.06;83.10
77013;BME280;67260;53.130;17.982;2024-01-15T13:43:54;98267.66;;;-0.01;83.43
77013;BME280;67260;53.130;17.982;2024-01-15T13:46:23;98265.27;;;-0.06;83.77
77013;BME280;67260;53.130;17.982;2024-01-15T13:48:49;98267.98;;;-0.10;83.42
77013;BME280;67260;53.130;17.982;2024-01-15T13:51:16;98272.41;;;-0.13;83.23
77013;BME280;67260;53.130;17.982;2024-01-15T13:53:42;98284.52;;;-0.14;83.49
77013;BME280;67260;53.130;17.982;2024-01-15T13:56:08;98284.68;;;-0.12;83.77
77013;BME280;67260;53.130;17.982;2024-01-15T13:58:37;98284.97;;;-0.10;83.66
77013;BME280;67260;53.130;17.982;2024-01-15T14:01:03;98285.70;;;-0.08;83.81
77013;BME280;67260;53.130;17.982;2024-01-15T14:03:35;98289.18;;;-0.08;83.63
77013;BME280;67260;53.130;17.982;2024-01-15T14:06:07;98289.91;;;-0.07;83.66
77013;BME280;67260;53.130;17.982;2024-01-15T14:08:35;98292.23;;;-0.07;83.81
77013;BME280;67260;53.130;17.982;2024-01-15T14:11:19;98290.84;;;-0.06;83.79
77013;BME280;67260;53.130;17.982;2024-01-15T14:13:48;98302.64;;;-0.06;84.12
77013;BME280;67260;53.130;17.982;2024-01-15T14:16:16;98304.32;;;-0.07;84.31
77013;BME280;67260;53.130;17.982;2024-01-15T14:18:42;98306.30;;;-0.04;84.52
77013;BME280;67260;53.130;17.982;2024-01-15T14:21:08;98312.27;;;-0.05;84.47
77013;BME280;67260;53.130;17.982;2024-01-15T14:23:38;98315.45;;;-0.09;84.46
77013;BME280;67260;53.130;17.982;2024-01-15T14:26:04;98317.67;;;-0.14;84.54
77013;BME280;67260;53.130;17.982;2024-01-15T14:28:30;98322.23;;;-0.22;83.88
77013;BME280;67260;53.130;17.982;2024-01-15T14:31:21;98327.30;;;-0.31;83.75